sensor_id;sensor_type;location;lat;lon;timestamp;P1;durP1;ratioP1;P2;durP2;ratioP2
11338;SDS011;5724;42.684;23.252;2022-07-23T00:00:15;6.22;;;5.82;;
11338;SDS011;5724;42.684;23.252;2022-07-23T00:02:41;5.80;;;5.30;;
11338;SDS011;5724;42.684;23.252;2022-07-23T00:05:06;7.18;;;5.68;;
11338;SDS011;5724;42.684;23.252;2022-07-23T00:07:32;8.35;;;5.82;;
11338;SDS011;5724;42.684;23.252;2022-07-23T00:09:58;9.38;;;6.20;;
11338;SDS011;5724;42.684;23.252;2022-07-23T00:12:23;6.97;;;6.38;;
11338;SDS011;5724;42.684;23.252;2022-07-23T00:14:49;7.90;;;6.95;;
11338;SDS011;5724;42.684;23.252;2022-07-23T00:17:14;8.52;;;6.88;;
11338;SDS011;5724;42.684;23.252;2022-07-23T00:19:40;7.18;;;6.57;;
11338;SDS011;5724;42.684;23.252;2022-07-23T00:22:06;8.00;;;7.30;;
11338;SDS011;5724;42.684;23.252;2022-07-23T00:24:31;12.75;;;7.95;;
11338;SDS011;5724;42.684;23.252;2022-07-23T00:26:57;9.75;;;7.28;;
11338;SDS011;5724;42.684;23.252;2022-07-23T00:29:22;7.10;;;6.50;;
11338;SDS011;5724;42.684;23.252;2022-07-23T00:31:48;8.25;;;7.43;;
11338;SDS011;5724;42.684;23.252;2022-07-23T00:34:13;7.82;;;7.22;;
11338;SDS011;5724;42.684;23.252;2022-07-23T00:36:39;12.20;;;7.78;;
11338;SDS011;5724;42.684;23.252;2022-07-23T00:39:04;7.75;;;6.95;;
11338;SDS011;5724;42.684;23.252;2022-07-23T00:41:30;8.80;;;6.47;;
11338;SDS011;5724;42.684;23.252;2022-07-23T00:43:55;7.18;;;6.68;;
11338;SDS011;5724;42.684;23.252;2022-07-23T00:46:21;9.32;;;6.72;;
11338;SDS011;5724;42.684;23.252;2022-07-23T00:48:48;8.65;;;6.47;;
11338;SDS011;5724;42.684;23.252;2022-07-23T00:51:16;9.02;;;6.53;;
11338;SDS011;5724;42.684;23.252;2022-07-23T00:53:43;8.00;;;7.03;;
11338;SDS011;5724;42.684;23.252;2022-07-23T00:56:09;9.45;;;6.57;;
11338;SDS011;5724;42.684;23.252;2022-07-23T00:58:35;9.13;;;6.57;;
11338;SDS011;5724;42.684;23.252;2022-07-23T01:01:01;7.22;;;6.47;;
11338;SDS011;5724;42.684;23.252;2022-07-23T01:03:27;6.90;;;6.30;;
11338;SDS011;5724;42.684;23.252;2022-07-23T01:05:53;6.75;;;6.22;;
11338;SDS011;5724;42.684;23.252;2022-07-23T01:08:19;6.60;;;6.13;;
11338;SDS011;5724;42.684;23.252;2022-07-23T01:10:46;6.95;;;6.30;;
11338;SDS011;5724;42.684;23.252;2022-07-23T01:13:12;7.72;;;6.60;;
11338;SDS011;5724;42.684;23.252;2022-07-23T01:15:38;6.65;;;6.15;;
11338;SDS011;5724;42.684;23.252;2022-07-23T01:18:04;6.90;;;6.20;;
11338;SDS011;5724;42.684;23.252;2022-07-23T01:20:31;6.65;;;6.15;;
11338;SDS011;5724;42.684;23.252;2022-07-23T01:22:57;7.00;;;6.35;;
11338;SDS011;5724;42.684;23.252;2022-07-23T01:25:23;6.07;;;5.63;;
11338;SDS011;5724;42.684;23.252;2022-07-23T01:27:49;6.43;;;5.93;;
11338;SDS011;5724;42.684;23.252;2022-07-23T01:30:17;7.15;;;6.07;;
11338;SDS011;5724;42.684;23.252;2022-07-23T01:32:42;6.53;;;5.80;;
11338;SDS011;5724;42.684;23.252;2022-07-23T01:35:08;6.05;;;5.65;;
11338;SDS011;5724;42.684;23.252;2022-07-23T01:37:34;6.55;;;5.95;;
11338;SDS011;5724;42.684;23.252;2022-07-23T01:40:00;7.00;;;6.03;;
11338;SDS011;5724;42.684;23.252;2022-07-23T01:42:26;6.65;;;6.05;;
11338;SDS011;5724;42.684;23.252;2022-07-23T01:44:51;7.05;;;6.50;;
11338;SDS011;5724;42.684;23.252;2022-07-23T01:47:17;8.00;;;6.57;;
11338;SDS011;5724;42.684;23.252;2022-07-23T01:49:42;6.13;;;5.70;;
11338;SDS011;5724;42.684;23.252;2022-07-23T01:52:08;6.95;;;6.35;;
11338;SDS011;5724;42.684;23.252;2022-07-23T01:54:36;6.68;;;6.03;;
11338;SDS011;5724;42.684;23.252;2022-07-23T01:57:04;6.10;;;5.50;;
11338;SDS011;5724;42.684;23.252;2022-07-23T01:59:29;7.50;;;6.03;;
11338;SDS011;5724;42.684;23.252;2022-07-23T02:01:55;8.80;;;5.82;;
11338;SDS011;5724;42.684;23.252;2022-07-23T02:04:21;5.72;;;5.20;;
11338;SDS011;5724;42.684;23.252;2022-07-23T02:06:48;7.13;;;5.80;;
11338;SDS011;5724;42.684;23.252;2022-07-23T02:09:14;6.50;;;5.43;;
11338;SDS011;5724;42.684;23.252;2022-07-23T02:11:40;6.82;;;5.97;;
11338;SDS011;5724;42.684;23.252;2022-07-23T02:14:05;6.57;;;5.97;;
11338;SDS011;5724;42.684;23.252;2022-07-23T02:16:31;6.28;;;5.70;;
11338;SDS011;5724;42.684;23.252;2022-07-23T02:18:57;6.95;;;6.45;;
11338;SDS011;5724;42.684;23.252;2022-07-23T02:21:22;8.45;;;5.70;;
11338;SDS011;5724;42.684;23.252;2022-07-23T02:23:48;6.55;;;5.97;;
11338;SDS011;5724;42.684;23.252;2022-07-23T02:26:13;8.05;;;6.18;;
11338;SDS011;5724;42.684;23.252;2022-07-23T02:28:39;7.45;;;6.72;;
11338;SDS011;5724;42.684;23.252;2022-07-23T02:31:04;8.05;;;7.43;;
11338;SDS011;5724;42.684;23.252;2022-07-23T02:33:31;10.43;;;7.18;;
11338;SDS011;5724;42.684;23.252;2022-07-23T02:35:57;7.97;;;7.18;;
11338;SDS011;5724;42.684;23.252;2022-07-23T02:38:23;7.95;;;6.97;;
11338;SDS011;5724;42.684;23.252;2022-07-23T02:40:48;8.90;;;7.53;;
11338;SDS011;5724;42.684;23.252;2022-07-23T02:43:13;8.20;;;7.43;;
11338;SDS011;5724;42.684;23.252;2022-07-23T02:45:39;8.10;;;7.45;;
11338;SDS011;5724;42.684;23.252;2022-07-23T02:48:04;7.82;;;7.10;;
11338;SDS011;5724;42.684;23.252;2022-07-23T02:50:30;8.00;;;7.20;;
11338;SDS011;5724;42.684;23.252;2022-07-23T02:52:55;7.32;;;6.72;;
11338;SDS011;5724;42.684;23.252;2022-07-23T02:55:21;7.15;;;6.65;;
11338;SDS011;5724;42.684;23.252;2022-07-23T02:57:46;7.32;;;6.70;;
11338;SDS011;5724;42.684;23.252;2022-07-23T03:00:12;9.65;;;6.57;;
11338;SDS011;5724;42.684;23.252;2022-07-23T03:02:38;7.65;;;6.78;;
11338;SDS011;5724;42.684;23.252;2022-07-23T03:05:04;7.28;;;6.43;;
11338;SDS011;5724;42.684;23.252;2022-07-23T03:07:29;7.70;;;7.07;;
11338;SDS011;5724;42.684;23.252;2022-07-23T03:09:55;7.55;;;6.88;;
11338;SDS011;5724;42.684;23.252;2022-07-23T03:12:20;8.98;;;7.43;;
11338;SDS011;5724;42.684;23.252;2022-07-23T03:14:46;8.00;;;7.05;;
11338;SDS011;5724;42.684;23.252;2022-07-23T03:17:11;8.23;;;7.38;;
11338;SDS011;5724;42.684;23.252;2022-07-23T03:19:37;8.18;;;7.40;;
11338;SDS011;5724;42.684;23.252;2022-07-23T03:22:04;8.38;;;7.70;;
11338;SDS011;5724;42.684;23.252;2022-07-23T03:24:30;7.70;;;7.10;;
11338;SDS011;5724;42.684;23.252;2022-07-23T03:27:14;9.52;;;8.05;;
11338;SDS011;5724;42.684;23.252;2022-07-23T03:29:39;6.97;;;6.28;;
11338;SDS011;5724;42.684;23.252;2022-07-23T03:32:05;8.38;;;6.05;;
11338;SDS011;5724;42.684;23.252;2022-07-23T03:34:31;7.22;;;6.32;;
11338;SDS011;5724;42.684;23.252;2022-07-23T03:36:56;7.25;;;6.57;;
11338;SDS011;5724;42.684;23.252;2022-07-23T03:39:22;7.55;;;6.70;;
11338;SDS011;5724;42.684;23.252;2022-07-23T03:41:48;8.70;;;6.63;;
11338;SDS011;5724;42.684;23.252;2022-07-23T03:44:13;7.85;;;7.03;;
11338;SDS011;5724;42.684;23.252;2022-07-23T03:46:39;9.95;;;6.97;;
11338;SDS011;5724;42.684;23.252;2022-07-23T03:49:04;7.82;;;7.00;;
11338;SDS011;5724;42.684;23.252;2022-07-23T03:51:29;7.18;;;6.47;;
11338;SDS011;5724;42.684;23.252;2022-07-23T03:53:55;7.10;;;6.40;;
11338;SDS011;5724;42.684;23.252;2022-07-23T03:56:21;7.75;;;6.82;;
11338;SDS011;5724;42.684;23.252;2022-07-23T03:58:46;8.80;;;6.88;;
11338;SDS011;5724;42.684;23.252;2022-07-23T04:01:12;7.80;;;7.07;;
11338;SDS011;5724;42.684;23.252;2022-07-23T04:03:38;7.88;;;7.00;;
11338;SDS011;5724;42.684;23.252;2022-07-23T04:06:03;6.88;;;6.07;;
11338;SDS011;5724;42.684;23.252;2022-07-23T04:08:29;7.43;;;6.57;;
11338;SDS011;5724;42.684;23.252;2022-07-23T04:10:54;7.15;;;6.38;;
11338;SDS011;5724;42.684;23.252;2022-07-23T04:13:20;9.13;;;7.20;;
11338;SDS011;5724;42.684;23.252;2022-07-23T04:15:45;7.38;;;6.47;;
11338;SDS011;5724;42.684;23.252;2022-07-23T04:18:11;10.80;;;7.35;;
11338;SDS011;5724;42.684;23.252;2022-07-23T04:20:37;8.60;;;6.97;;
11338;SDS011;5724;42.684;23.252;2022-07-23T04:23:02;7.22;;;6.63;;
11338;SDS011;5724;42.684;23.252;2022-07-23T04:25:28;7.93;;;6.10;;
11338;SDS011;5724;42.684;23.252;2022-07-23T04:27:53;6.82;;;6.43;;
11338;SDS011;5724;42.684;23.252;2022-07-23T04:30:19;6.93;;;6.43;;
11338;SDS011;5724;42.684;23.252;2022-07-23T04:32:44;6.95;;;6.35;;
11338;SDS011;5724;42.684;23.252;2022-07-23T04:35:10;7.30;;;6.55;;
11338;SDS011;5724;42.684;23.252;2022-07-23T04:37:35;7.20;;;6.68;;
11338;SDS011;5724;42.684;23.252;2022-07-23T04:40:01;6.93;;;6.30;;
11338;SDS011;5724;42.684;23.252;2022-07-23T04:42:26;9.45;;;6.95;;
11338;SDS011;5724;42.684;23.252;2022-07-23T04:44:52;6.97;;;6.30;;
11338;SDS011;5724;42.684;23.252;2022-07-23T04:47:17;7.35;;;6.65;;
11338;SDS011;5724;42.684;23.252;2022-07-23T04:49:43;6.95;;;6.13;;
11338;SDS011;5724;42.684;23.252;2022-07-23T04:52:08;7.40;;;6.55;;
11338;SDS011;5724;42.684;23.252;2022-07-23T04:54:34;9.02;;;6.68;;
11338;SDS011;5724;42.684;23.252;2022-07-23T04:56:59;6.80;;;6.25;;
11338;SDS011;5724;42.684;23.252;2022-07-23T04:59:25;7.07;;;6.15;;
11338;SDS011;5724;42.684;23.252;2022-07-23T05:01:50;7.65;;;6.85;;
11338;SDS011;5724;42.684;23.252;2022-07-23T05:04:16;7.93;;;6.80;;
11338;SDS011;5724;42.684;23.252;2022-07-23T05:06:41;9.27;;;6.43;;
11338;SDS011;5724;42.684;23.252;2022-07-23T05:09:07;6.90;;;6.28;;
11338;SDS011;5724;42.684;23.252;2022-07-23T05:11:32;8.32;;;6.45;;
11338;SDS011;5724;42.684;23.252;2022-07-23T05:13:58;11.88;;;6.53;;
11338;SDS011;5724;42.684;23.252;2022-07-23T05:16:23;6.70;;;6.15;;
11338;SDS011;5724;42.684;23.252;2022-07-23T05:18:49;6.55;;;5.95;;
11338;SDS011;5724;42.684;23.252;2022-07-23T05:21:15;6.97;;;6.30;;
11338;SDS011;5724;42.684;23.252;2022-07-23T05:23:40;8.05;;;6.85;;
11338;SDS011;5724;42.684;23.252;2022-07-23T05:26:06;7.35;;;6.65;;
11338;SDS011;5724;42.684;23.252;2022-07-23T05:28:31;9.20;;;6.90;;
11338;SDS011;5724;42.684;23.252;2022-07-23T05:30:57;11.82;;;7.53;;
11338;SDS011;5724;42.684;23.252;2022-07-23T05:33:22;9.07;;;7.50;;
11338;SDS011;5724;42.684;23.252;2022-07-23T05:35:47;8.20;;;7.15;;
11338;SDS011;5724;42.684;23.252;2022-07-23T05:38:13;15.13;;;7.65;;
11338;SDS011;5724;42.684;23.252;2022-07-23T05:40:38;8.45;;;6.88;;
11338;SDS011;5724;42.684;23.252;2022-07-23T05:43:04;8.27;;;7.45;;
11338;SDS011;5724;42.684;23.252;2022-07-23T05:45:29;10.88;;;7.50;;
11338;SDS011;5724;42.684;23.252;2022-07-23T05:47:55;9.85;;;7.10;;
11338;SDS011;5724;42.684;23.252;2022-07-23T05:50:20;15.65;;;7.38;;
11338;SDS011;5724;42.684;23.252;2022-07-23T05:52:46;10.77;;;6.57;;
11338;SDS011;5724;42.684;23.252;2022-07-23T05:55:12;7.57;;;6.93;;
11338;SDS011;5724;42.684;23.252;2022-07-23T05:57:38;8.65;;;7.07;;
11338;SDS011;5724;42.684;23.252;2022-07-23T06:00:05;8.10;;;7.32;;
11338;SDS011;5724;42.684;23.252;2022-07-23T06:02:31;8.75;;;7.30;;
11338;SDS011;5724;42.684;23.252;2022-07-23T06:04:57;11.13;;;7.90;;
11338;SDS011;5724;42.684;23.252;2022-07-23T06:07:22;11.05;;;7.20;;
11338;SDS011;5724;42.684;23.252;2022-07-23T06:09:48;7.97;;;6.70;;
11338;SDS011;5724;42.684;23.252;2022-07-23T06:12:14;10.48;;;7.75;;
11338;SDS011;5724;42.684;23.252;2022-07-23T06:14:41;10.52;;;7.22;;
11338;SDS011;5724;42.684;23.252;2022-07-23T06:17:06;8.80;;;7.45;;
11338;SDS011;5724;42.684;23.252;2022-07-23T06:19:32;10.50;;;7.90;;
11338;SDS011;5724;42.684;23.252;2022-07-23T06:21:57;10.30;;;9.32;;
11338;SDS011;5724;42.684;23.252;2022-07-23T06:24:23;8.50;;;7.80;;
11338;SDS011;5724;42.684;23.252;2022-07-23T06:26:48;8.65;;;7.20;;
11338;SDS011;5724;42.684;23.252;2022-07-23T06:29:14;13.98;;;9.10;;
11338;SDS011;5724;42.684;23.252;2022-07-23T06:31:39;8.85;;;6.95;;
11338;SDS011;5724;42.684;23.252;2022-07-23T06:34:05;11.90;;;7.95;;
11338;SDS011;5724;42.684;23.252;2022-07-23T06:36:30;10.98;;;7.57;;
11338;SDS011;5724;42.684;23.252;2022-07-23T06:38:56;8.35;;;7.50;;
11338;SDS011;5724;42.684;23.252;2022-07-23T06:41:21;10.23;;;7.63;;
11338;SDS011;5724;42.684;23.252;2022-07-23T06:43:47;11.13;;;6.95;;
11338;SDS011;5724;42.684;23.252;2022-07-23T06:46:13;11.23;;;8.20;;
11338;SDS011;5724;42.684;23.252;2022-07-23T06:48:39;9.15;;;7.60;;
11338;SDS011;5724;42.684;23.252;2022-07-23T06:51:05;11.90;;;8.35;;
11338;SDS011;5724;42.684;23.252;2022-07-23T06:53:30;9.00;;;7.82;;
11338;SDS011;5724;42.684;23.252;2022-07-23T06:55:56;8.57;;;7.88;;
11338;SDS011;5724;42.684;23.252;2022-07-23T06:58:21;8.38;;;7.32;;
11338;SDS011;5724;42.684;23.252;2022-07-23T07:00:47;13.98;;;7.95;;
11338;SDS011;5724;42.684;23.252;2022-07-23T07:03:13;12.18;;;8.07;;
11338;SDS011;5724;42.684;23.252;2022-07-23T07:05:38;7.88;;;7.00;;
11338;SDS011;5724;42.684;23.252;2022-07-23T07:08:05;11.52;;;7.20;;
11338;SDS011;5724;42.684;23.252;2022-07-23T07:10:31;14.50;;;7.80;;
11338;SDS011;5724;42.684;23.252;2022-07-23T07:12:57;8.82;;;7.40;;
11338;SDS011;5724;42.684;23.252;2022-07-23T07:15:22;12.77;;;7.13;;
11338;SDS011;5724;42.684;23.252;2022-07-23T07:17:48;10.52;;;7.53;;
11338;SDS011;5724;42.684;23.252;2022-07-23T07:20:13;7.93;;;7.20;;
11338;SDS011;5724;42.684;23.252;2022-07-23T07:22:39;10.80;;;6.93;;
11338;SDS011;5724;42.684;23.252;2022-07-23T07:25:05;11.07;;;8.02;;
11338;SDS011;5724;42.684;23.252;2022-07-23T07:27:31;8.27;;;7.03;;
11338;SDS011;5724;42.684;23.252;2022-07-23T07:29:57;10.98;;;7.38;;
11338;SDS011;5724;42.684;23.252;2022-07-23T07:32:22;8.25;;;6.30;;
11338;SDS011;5724;42.684;23.252;2022-07-23T07:34:47;9.10;;;8.15;;
11338;SDS011;5724;42.684;23.252;2022-07-23T07:37:13;9.35;;;8.30;;
11338;SDS011;5724;42.684;23.252;2022-07-23T07:39:38;15.85;;;7.45;;
11338;SDS011;5724;42.684;23.252;2022-07-23T07:42:04;7.75;;;6.97;;
11338;SDS011;5724;42.684;23.252;2022-07-23T07:44:29;12.07;;;7.45;;
11338;SDS011;5724;42.684;23.252;2022-07-23T07:46:55;8.10;;;7.30;;
11338;SDS011;5724;42.684;23.252;2022-07-23T07:49:20;12.18;;;7.28;;
11338;SDS011;5724;42.684;23.252;2022-07-23T07:51:46;12.10;;;7.63;;
11338;SDS011;5724;42.684;23.252;2022-07-23T07:54:12;8.77;;;7.63;;
11338;SDS011;5724;42.684;23.252;2022-07-23T07:56:38;15.38;;;7.53;;
11338;SDS011;5724;42.684;23.252;2022-07-23T07:59:04;10.88;;;7.60;;
11338;SDS011;5724;42.684;23.252;2022-07-23T08:01:30;10.27;;;7.65;;
11338;SDS011;5724;42.684;23.252;2022-07-23T08:03:56;8.50;;;7.80;;
11338;SDS011;5724;42.684;23.252;2022-07-23T08:06:22;11.88;;;7.97;;
11338;SDS011;5724;42.684;23.252;2022-07-23T08:08:48;8.98;;;7.45;;
11338;SDS011;5724;42.684;23.252;2022-07-23T08:11:13;7.60;;;7.00;;
11338;SDS011;5724;42.684;23.252;2022-07-23T08:13:39;15.55;;;7.57;;
11338;SDS011;5724;42.684;23.252;2022-07-23T08:16:04;11.80;;;7.65;;
11338;SDS011;5724;42.684;23.252;2022-07-23T08:18:30;10.80;;;7.05;;
11338;SDS011;5724;42.684;23.252;2022-07-23T08:20:55;9.60;;;7.80;;
11338;SDS011;5724;42.684;23.252;2022-07-23T08:23:21;8.73;;;7.80;;
11338;SDS011;5724;42.684;23.252;2022-07-23T08:25:46;9.23;;;8.00;;
11338;SDS011;5724;42.684;23.252;2022-07-23T08:28:13;9.73;;;8.82;;
11338;SDS011;5724;42.684;23.252;2022-07-23T08:30:40;21.17;;;11.27;;
11338;SDS011;5724;42.684;23.252;2022-07-23T08:33:08;12.20;;;10.95;;
11338;SDS011;5724;42.684;23.252;2022-07-23T08:35:45;13.02;;;8.88;;
11338;SDS011;5724;42.684;23.252;2022-07-23T08:38:14;10.55;;;8.05;;
11338;SDS011;5724;42.684;23.252;2022-07-23T08:40:41;9.95;;;7.88;;
11338;SDS011;5724;42.684;23.252;2022-07-23T08:43:10;14.95;;;11.63;;
11338;SDS011;5724;42.684;23.252;2022-07-23T08:45:42;10.30;;;8.00;;
11338;SDS011;5724;42.684;23.252;2022-07-23T08:48:13;8.43;;;7.63;;
11338;SDS011;5724;42.684;23.252;2022-07-23T08:50:44;8.85;;;7.63;;
11338;SDS011;5724;42.684;23.252;2022-07-23T08:53:11;11.85;;;7.80;;
11338;SDS011;5724;42.684;23.252;2022-07-23T08:55:36;12.07;;;7.32;;
11338;SDS011;5724;42.684;23.252;2022-07-23T08:58:02;11.15;;;7.40;;
11338;SDS011;5724;42.684;23.252;2022-07-23T09:00:28;11.00;;;8.25;;
11338;SDS011;5724;42.684;23.252;2022-07-23T09:02:54;13.90;;;8.00;;
11338;SDS011;5724;42.684;23.252;2022-07-23T09:05:20;8.10;;;7.30;;
11338;SDS011;5724;42.684;23.252;2022-07-23T09:15:58;9.77;;;8.13;;
11338;SDS011;5724;42.684;23.252;2022-07-23T09:18:32;14.93;;;13.35;;
11338;SDS011;5724;42.684;23.252;2022-07-23T09:21:10;10.65;;;7.13;;
11338;SDS011;5724;42.684;23.252;2022-07-23T09:29:08;10.15;;;6.93;;
11338;SDS011;5724;42.684;23.252;2022-07-23T09:31:53;9.65;;;6.72;;
11338;SDS011;5724;42.684;23.252;2022-07-23T09:34:23;8.05;;;7.20;;
11338;SDS011;5724;42.684;23.252;2022-07-23T09:36:49;10.68;;;8.52;;
11338;SDS011;5724;42.684;23.252;2022-07-23T09:39:22;11.10;;;9.40;;
11338;SDS011;5724;42.684;23.252;2022-07-23T09:41:51;12.13;;;6.65;;
11338;SDS011;5724;42.684;23.252;2022-07-23T09:44:18;8.55;;;7.10;;
11338;SDS011;5724;42.684;23.252;2022-07-23T09:46:46;11.48;;;6.50;;
11338;SDS011;5724;42.684;23.252;2022-07-23T09:49:17;10.73;;;6.53;;
11338;SDS011;5724;42.684;23.252;2022-07-23T09:51:51;7.35;;;6.75;;
11338;SDS011;5724;42.684;23.252;2022-07-23T09:54:33;12.30;;;8.80;;
11338;SDS011;5724;42.684;23.252;2022-07-23T09:57:02;9.27;;;7.13;;
11338;SDS011;5724;42.684;23.252;2022-07-23T09:59:32;9.07;;;6.57;;
11338;SDS011;5724;42.684;23.252;2022-07-23T10:02:00;8.35;;;7.18;;
11338;SDS011;5724;42.684;23.252;2022-07-23T10:04:27;6.65;;;6.03;;
11338;SDS011;5724;42.684;23.252;2022-07-23T10:06:55;7.15;;;5.82;;
11338;SDS011;5724;42.684;23.252;2022-07-23T10:09:23;6.75;;;5.50;;
11338;SDS011;5724;42.684;23.252;2022-07-23T10:11:52;6.13;;;5.50;;
11338;SDS011;5724;42.684;23.252;2022-07-23T10:14:25;5.72;;;5.40;;
11338;SDS011;5724;42.684;23.252;2022-07-23T10:16:52;7.45;;;6.00;;
11338;SDS011;5724;42.684;23.252;2022-07-23T10:19:18;8.82;;;5.47;;
11338;SDS011;5724;42.684;23.252;2022-07-23T10:21:52;5.63;;;5.07;;
11338;SDS011;5724;42.684;23.252;2022-07-23T10:24:28;9.63;;;5.80;;
11338;SDS011;5724;42.684;23.252;2022-07-23T10:29:59;8.10;;;5.10;;
11338;SDS011;5724;42.684;23.252;2022-07-23T10:32:48;7.40;;;5.30;;
11338;SDS011;5724;42.684;23.252;2022-07-23T10:35:26;9.02;;;5.15;;
11338;SDS011;5724;42.684;23.252;2022-07-23T10:38:07;8.35;;;5.47;;
11338;SDS011;5724;42.684;23.252;2022-07-23T10:40:38;12.82;;;5.82;;
11338;SDS011;5724;42.684;23.252;2022-07-23T10:43:22;8.38;;;5.68;;
11338;SDS011;5724;42.684;23.252;2022-07-23T10:45:48;12.95;;;5.70;;
11338;SDS011;5724;42.684;23.252;2022-07-23T10:53:57;8.45;;;5.25;;
11338;SDS011;5724;42.684;23.252;2022-07-23T10:59:21;9.65;;;4.68;;
11338;SDS011;5724;42.684;23.252;2022-07-23T11:01:46;8.48;;;4.88;;
11338;SDS011;5724;42.684;23.252;2022-07-23T11:04:12;10.02;;;4.60;;
11338;SDS011;5724;42.684;23.252;2022-07-23T11:07:20;7.47;;;4.80;;
11338;SDS011;5724;42.684;23.252;2022-07-23T11:09:27;8.05;;;4.88;;
11338;SDS011;5724;42.684;23.252;2022-07-23T11:15:12;7.05;;;4.60;;
11338;SDS011;5724;42.684;23.252;2022-07-23T11:25:09;8.00;;;4.70;;
11338;SDS011;5724;42.684;23.252;2022-07-23T11:30:09;8.68;;;4.80;;
11338;SDS011;5724;42.684;23.252;2022-07-23T11:33:28;8.05;;;4.65;;
11338;SDS011;5724;42.684;23.252;2022-07-23T11:35:49;7.40;;;4.63;;
11338;SDS011;5724;42.684;23.252;2022-07-23T11:38:25;12.20;;;4.47;;
11338;SDS011;5724;42.684;23.252;2022-07-23T11:40:54;10.00;;;4.50;;
11338;SDS011;5724;42.684;23.252;2022-07-23T11:43:23;11.77;;;4.60;;
11338;SDS011;5724;42.684;23.252;2022-07-23T11:45:50;10.57;;;4.63;;
11338;SDS011;5724;42.684;23.252;2022-07-23T11:48:19;11.95;;;5.15;;
11338;SDS011;5724;42.684;23.252;2022-07-23T11:50:46;10.95;;;4.95;;
11338;SDS011;5724;42.684;23.252;2022-07-23T11:53:12;10.98;;;5.00;;
11338;SDS011;5724;42.684;23.252;2022-07-23T11:55:38;13.38;;;4.63;;
11338;SDS011;5724;42.684;23.252;2022-07-23T11:58:04;9.77;;;5.00;;
11338;SDS011;5724;42.684;23.252;2022-07-23T12:00:31;11.63;;;5.07;;
11338;SDS011;5724;42.684;23.252;2022-07-23T12:02:58;15.02;;;5.65;;
11338;SDS011;5724;42.684;23.252;2022-07-23T12:05:29;10.85;;;4.85;;
11338;SDS011;5724;42.684;23.252;2022-07-23T12:07:56;12.88;;;5.05;;
11338;SDS011;5724;42.684;23.252;2022-07-23T12:10:24;10.88;;;5.20;;
11338;SDS011;5724;42.684;23.252;2022-07-23T12:13:00;12.50;;;5.40;;
11338;SDS011;5724;42.684;23.252;2022-07-23T12:15:46;12.48;;;5.38;;
11338;SDS011;5724;42.684;23.252;2022-07-23T12:18:18;12.38;;;5.90;;
11338;SDS011;5724;42.684;23.252;2022-07-23T12:20:46;6.38;;;4.90;;
11338;SDS011;5724;42.684;23.252;2022-07-23T12:23:15;12.57;;;4.82;;
11338;SDS011;5724;42.684;23.252;2022-07-23T12:25:42;12.45;;;5.43;;
11338;SDS011;5724;42.684;23.252;2022-07-23T12:28:13;9.60;;;4.75;;
11338;SDS011;5724;42.684;23.252;2022-07-23T12:30:44;11.05;;;5.07;;
11338;SDS011;5724;42.684;23.252;2022-07-23T12:33:14;13.10;;;5.35;;
11338;SDS011;5724;42.684;23.252;2022-07-23T12:35:47;10.90;;;4.95;;
11338;SDS011;5724;42.684;23.252;2022-07-23T12:38:14;8.52;;;4.78;;
11338;SDS011;5724;42.684;23.252;2022-07-23T12:45:56;11.07;;;5.05;;
11338;SDS011;5724;42.684;23.252;2022-07-23T12:48:26;11.55;;;5.47;;
11338;SDS011;5724;42.684;23.252;2022-07-23T12:53:43;8.40;;;4.97;;
11338;SDS011;5724;42.684;23.252;2022-07-23T12:56:17;10.43;;;5.28;;
11338;SDS011;5724;42.684;23.252;2022-07-23T12:58:51;13.57;;;5.32;;
11338;SDS011;5724;42.684;23.252;2022-07-23T13:03:54;11.50;;;5.20;;
11338;SDS011;5724;42.684;23.252;2022-07-23T13:06:19;8.13;;;4.97;;
11338;SDS011;5724;42.684;23.252;2022-07-23T13:08:45;7.03;;;4.57;;
11338;SDS011;5724;42.684;23.252;2022-07-23T13:11:10;9.80;;;4.72;;
11338;SDS011;5724;42.684;23.252;2022-07-23T13:13:36;11.63;;;5.75;;
11338;SDS011;5724;42.684;23.252;2022-07-23T13:16:02;12.18;;;5.22;;
11338;SDS011;5724;42.684;23.252;2022-07-23T13:18:28;9.63;;;4.85;;
11338;SDS011;5724;42.684;23.252;2022-07-23T13:20:54;11.15;;;4.75;;
11338;SDS011;5724;42.684;23.252;2022-07-23T13:23:20;7.75;;;5.10;;
11338;SDS011;5724;42.684;23.252;2022-07-23T13:25:46;7.07;;;5.05;;
11338;SDS011;5724;42.684;23.252;2022-07-23T13:28:13;9.75;;;4.65;;
11338;SDS011;5724;42.684;23.252;2022-07-23T13:30:40;6.40;;;4.35;;
11338;SDS011;5724;42.684;23.252;2022-07-23T13:33:06;9.45;;;4.50;;
11338;SDS011;5724;42.684;23.252;2022-07-23T13:35:33;15.75;;;4.90;;
11338;SDS011;5724;42.684;23.252;2022-07-23T13:38:00;10.32;;;4.78;;
11338;SDS011;5724;42.684;23.252;2022-07-23T13:40:26;9.30;;;4.47;;
11338;SDS011;5724;42.684;23.252;2022-07-23T13:42:51;13.98;;;4.93;;
11338;SDS011;5724;42.684;23.252;2022-07-23T13:45:17;7.35;;;4.50;;
11338;SDS011;5724;42.684;23.252;2022-07-23T13:47:42;7.55;;;4.43;;
11338;SDS011;5724;42.684;23.252;2022-07-23T13:50:08;9.77;;;4.95;;
11338;SDS011;5724;42.684;23.252;2022-07-23T13:52:34;11.20;;;4.82;;
11338;SDS011;5724;42.684;23.252;2022-07-23T13:55:00;7.70;;;4.25;;
11338;SDS011;5724;42.684;23.252;2022-07-23T13:57:27;8.73;;;4.47;;
11338;SDS011;5724;42.684;23.252;2022-07-23T13:59:52;9.40;;;5.00;;
11338;SDS011;5724;42.684;23.252;2022-07-23T14:02:18;7.53;;;4.55;;
11338;SDS011;5724;42.684;23.252;2022-07-23T14:04:44;5.32;;;4.40;;
11338;SDS011;5724;42.684;23.252;2022-07-23T14:07:09;4.90;;;4.40;;
11338;SDS011;5724;42.684;23.252;2022-07-23T14:09:35;9.43;;;4.53;;
11338;SDS011;5724;42.684;23.252;2022-07-23T14:12:01;13.05;;;4.82;;
11338;SDS011;5724;42.684;23.252;2022-07-23T14:14:27;10.18;;;4.43;;
11338;SDS011;5724;42.684;23.252;2022-07-23T14:16:53;11.82;;;4.50;;
11338;SDS011;5724;42.684;23.252;2022-07-23T14:19:20;7.35;;;4.72;;
11338;SDS011;5724;42.684;23.252;2022-07-23T14:21:46;6.30;;;4.35;;
11338;SDS011;5724;42.684;23.252;2022-07-23T14:24:13;7.82;;;4.72;;
11338;SDS011;5724;42.684;23.252;2022-07-23T14:26:39;7.10;;;4.43;;
11338;SDS011;5724;42.684;23.252;2022-07-23T14:29:05;8.23;;;4.78;;
11338;SDS011;5724;42.684;23.252;2022-07-23T14:31:30;9.20;;;4.97;;
11338;SDS011;5724;42.684;23.252;2022-07-23T14:33:56;8.73;;;4.85;;
11338;SDS011;5724;42.684;23.252;2022-07-23T14:36:21;7.18;;;3.95;;
11338;SDS011;5724;42.684;23.252;2022-07-23T14:38:47;9.50;;;4.70;;
11338;SDS011;5724;42.684;23.252;2022-07-23T14:41:12;6.28;;;4.55;;
11338;SDS011;5724;42.684;23.252;2022-07-23T14:43:38;7.65;;;4.53;;
11338;SDS011;5724;42.684;23.252;2022-07-23T14:46:04;12.05;;;4.43;;
11338;SDS011;5724;42.684;23.252;2022-07-23T14:48:30;9.85;;;4.40;;
11338;SDS011;5724;42.684;23.252;2022-07-23T14:50:55;6.85;;;4.50;;
11338;SDS011;5724;42.684;23.252;2022-07-23T14:53:21;9.05;;;4.38;;
11338;SDS011;5724;42.684;23.252;2022-07-23T14:55:46;10.00;;;4.70;;
11338;SDS011;5724;42.684;23.252;2022-07-23T14:58:12;8.85;;;4.63;;
11338;SDS011;5724;42.684;23.252;2022-07-23T15:00:37;10.10;;;4.50;;
11338;SDS011;5724;42.684;23.252;2022-07-23T15:03:03;5.38;;;4.35;;
11338;SDS011;5724;42.684;23.252;2022-07-23T15:05:28;7.05;;;4.68;;
11338;SDS011;5724;42.684;23.252;2022-07-23T15:07:54;8.40;;;4.68;;
11338;SDS011;5724;42.684;23.252;2022-07-23T15:10:20;5.20;;;4.70;;
11338;SDS011;5724;42.684;23.252;2022-07-23T15:12:45;8.57;;;4.72;;
11338;SDS011;5724;42.684;23.252;2022-07-23T15:15:11;5.55;;;4.35;;
11338;SDS011;5724;42.684;23.252;2022-07-23T15:17:38;8.98;;;4.60;;
11338;SDS011;5724;42.684;23.252;2022-07-23T15:20:04;8.30;;;4.65;;
11338;SDS011;5724;42.684;23.252;2022-07-23T15:22:30;7.07;;;4.68;;
11338;SDS011;5724;42.684;23.252;2022-07-23T15:24:55;5.82;;;4.53;;
11338;SDS011;5724;42.684;23.252;2022-07-23T15:27:21;9.73;;;4.97;;
11338;SDS011;5724;42.684;23.252;2022-07-23T15:29:46;5.78;;;4.80;;